createdAt,value
2023-01-08T00:00:29.014Z,781.30
2023-01-08T00:02:57.047Z,777.00
2023-01-08T00:05:24.938Z,761.40
2023-01-08T00:07:52.613Z,762.85
2023-01-08T00:10:20.266Z,758.45
2023-01-08T00:12:47.951Z,751.40
2023-01-08T00:15:15.692Z,743.67
2023-01-08T00:17:44.729Z,740.75
2023-01-08T00:20:12.677Z,735.25
2023-01-08T00:22:40.516Z,735.88
2023-01-08T00:25:09.313Z,730.90
2023-01-08T00:27:37.061Z,719.90
2023-01-08T00:30:05.623Z,710.53
2023-01-08T00:32:33.413Z,703.35
2023-01-08T00:35:02.523Z,700.70
2023-01-08T00:37:30.250Z,691.10
2023-01-08T00:39:58.283Z,689.58
2023-01-08T00:42:26.220Z,681.78
2023-01-08T00:44:53.987Z,672.38
2023-01-08T00:47:21.733Z,665.97
2023-01-08T00:49:49.495Z,656.72
2023-01-08T00:52:18.517Z,658.28
2023-01-08T00:54:46.255Z,643.95
2023-01-08T00:57:13.949Z,639.55
2023-01-08T00:59:41.685Z,631.72
2023-01-08T01:02:09.589Z,626.72
2023-01-08T01:04:37.418Z,614.55
2023-01-08T01:07:05.117Z,607.70
2023-01-08T01:09:34.112Z,595.17
2023-01-08T01:12:01.940Z,573.45
2023-01-08T01:14:29.670Z,568.13
2023-01-08T01:16:57.521Z,563.22
2023-01-08T01:19:25.377Z,543.58
2023-01-08T01:21:53.225Z,543.17
2023-01-08T01:24:23.702Z,542.60
2023-01-08T01:26:52.991Z,543.92
2023-01-08T01:29:20.731Z,529.40
2023-01-08T01:31:48.496Z,520.95
2023-01-08T01:34:16.325Z,521.20
2023-01-08T01:36:44.134Z,506.00
2023-01-08T01:39:11.917Z,498.83
2023-01-08T01:41:40.742Z,491.52
2023-01-08T01:44:38.758Z,481.20
2023-01-08T01:47:10.482Z,474.42
2023-01-08T01:49:38.504Z,470.23
2023-01-08T01:52:06.797Z,455.88
2023-01-08T01:54:34.680Z,449.63
2023-01-08T01:57:02.649Z,441.35
2023-01-08T01:59:30.612Z,438.70
2023-01-08T02:01:59.797Z,435.17
2023-01-08T02:04:27.695Z,422.15
2023-01-08T02:06:58.977Z,418.00
2023-01-08T02:09:30.961Z,405.20
2023-01-08T02:12:20.119Z,394.52
2023-01-08T02:15:01.585Z,390.77
2023-01-08T02:17:35.444Z,383.48
2023-01-08T02:20:06.959Z,381.10
2023-01-08T02:22:42.240Z,370.42
2023-01-08T02:25:11.901Z,358.77
2023-01-08T02:27:42.043Z,358.65
2023-01-08T02:30:10.645Z,351.73
2023-01-08T02:32:39.260Z,345.70
2023-01-08T02:35:08.135Z,339.63
2023-01-08T02:37:36.290Z,328.80
2023-01-08T02:40:12.004Z,328.98
2023-01-08T02:42:45.003Z,315.70
2023-01-08T02:45:22.557Z,309.27
2023-01-08T02:47:52.332Z,297.48
2023-01-08T02:50:22.356Z,296.25
2023-01-08T02:52:54.336Z,285.55
2023-01-08T02:55:22.993Z,281.35
2023-01-08T02:57:51.980Z,274.63
2023-01-08T03:00:19.848Z,265.63
2023-01-08T03:02:49.352Z,257.80
2023-01-08T03:05:23.840Z,249.38
2023-01-08T03:07:51.619Z,241.48
2023-01-08T03:10:19.684Z,238.77
2023-01-08T03:12:51.433Z,229.20
2023-01-08T03:15:24.218Z,228.63
2023-01-08T03:17:52.788Z,221.15
2023-01-08T03:20:21.603Z,220.05
2023-01-08T03:22:50.704Z,206.43
2023-01-08T03:25:19.379Z,200.40
2023-01-08T03:27:49.072Z,200.45
2023-01-08T03:30:17.131Z,189.30
2023-01-08T03:32:46.130Z,184.68
2023-01-08T03:35:14.759Z,179.98
2023-01-08T03:37:44.412Z,173.18
2023-01-08T03:40:13.722Z,168.55
2023-01-08T03:42:41.642Z,170.20
2023-01-08T03:45:09.872Z,161.30
2023-01-08T03:47:37.810Z,156.50
2023-01-08T03:50:09.979Z,155.07
2023-01-08T03:52:37.690Z,147.85
2023-01-08T03:55:06.004Z,146.80
2023-01-08T03:57:33.800Z,139.10
2023-01-08T04:00:01.498Z,135.18
2023-01-08T04:02:29.299Z,131.25
2023-01-08T04:04:57.052Z,130.88
2023-01-08T04:07:26.113Z,123.78
2023-01-08T04:09:53.817Z,122.47
2023-01-08T04:12:21.530Z,118.57
2023-01-08T04:14:49.246Z,115.03
2023-01-08T04:17:16.930Z,112.32
2023-01-08T04:19:44.607Z,105.97
2023-01-08T04:22:12.455Z,105.63
2023-01-08T04:24:41.470Z,99.05
2023-01-08T04:27:09.197Z,97.95
2023-01-08T04:29:36.885Z,95.60
2023-01-08T04:32:04.812Z,91.03
2023-01-08T04:34:32.522Z,88.53
2023-01-08T04:37:00.547Z,85.70
2023-01-08T04:39:28.224Z,83.90
2023-01-08T04:41:57.246Z,80.85
2023-01-08T04:44:25.105Z,77.82
2023-01-08T04:46:52.820Z,75.85
2023-01-08T04:49:20.522Z,76.43
2023-01-08T04:51:48.213Z,72.47
2023-01-08T04:54:16.032Z,69.40
2023-01-08T04:56:43.688Z,68.18
2023-01-08T04:59:12.731Z,67.70
2023-01-08T05:01:40.557Z,64.35
2023-01-08T05:04:08.486Z,61.90
2023-01-08T05:06:36.207Z,61.25
2023-01-08T05:09:04.301Z,57.67
2023-01-08T05:11:32.029Z,57.55
2023-01-08T05:13:59.693Z,54.65
2023-01-08T05:16:28.659Z,54.22
2023-01-08T05:18:56.312Z,51.05
2023-01-08T05:21:23.937Z,50.58
2023-01-08T05:23:51.602Z,48.75
2023-01-08T05:26:19.693Z,47.65
2023-01-08T05:28:47.371Z,45.72
2023-01-08T05:31:15.394Z,44.40
2023-01-08T05:33:44.450Z,42.63
2023-01-08T05:36:13.079Z,42.28
2023-01-08T05:38:40.842Z,40.53
2023-01-08T05:41:08.622Z,38.70
2023-01-08T05:43:36.321Z,38.83
2023-01-08T05:46:04.368Z,36.05
2023-01-08T05:48:33.670Z,37.47
2023-01-08T05:51:02.755Z,34.13
2023-01-08T05:53:31.912Z,33.72
2023-01-08T05:56:00.689Z,33.65
2023-01-08T05:58:28.349Z,32.63
2023-01-08T06:00:56.606Z,30.67
2023-01-08T06:03:24.264Z,28.90
2023-01-08T06:05:51.922Z,29.10
2023-01-08T06:08:20.924Z,28.92
2023-01-08T06:10:48.603Z,27.63
2023-01-08T06:13:16.312Z,27.50
2023-01-08T06:15:44.046Z,26.77
2023-01-08T06:18:11.780Z,26.08
2023-01-08T06:20:39.432Z,25.48
2023-01-08T06:23:08.638Z,24.48
2023-01-08T06:25:37.725Z,24.48
2023-01-08T06:28:05.729Z,22.88
2023-01-08T06:30:33.393Z,22.80
2023-01-08T06:33:01.413Z,23.60
2023-01-08T06:35:29.091Z,21.08
2023-01-08T06:37:56.829Z,21.30
2023-01-08T06:40:24.605Z,20.88
2023-01-08T06:42:53.583Z,19.92
2023-01-08T06:45:21.277Z,19.60
2023-01-08T06:47:48.979Z,20.17
2023-01-08T06:50:16.759Z,19.10
2023-01-08T06:52:44.422Z,18.42
2023-01-08T06:55:12.088Z,18.48
2023-01-08T06:57:41.417Z,17.45
2023-01-08T07:00:11.527Z,17.77
2023-01-08T07:02:39.363Z,16.58
2023-01-08T07:05:07.467Z,16.95
2023-01-08T07:07:35.663Z,16.65
2023-01-08T07:10:03.332Z,15.60
2023-01-08T07:12:31.062Z,15.88
2023-01-08T07:14:58.941Z,15.68
2023-01-08T07:17:27.915Z,14.93
2023-01-08T07:19:55.581Z,13.95
2023-01-08T07:22:24.126Z,14.43
2023-01-08T07:24:51.821Z,14.93
2023-01-08T07:27:19.633Z,14.90
2023-01-08T07:29:47.277Z,14.82
2023-01-08T07:32:14.949Z,13.30
2023-01-08T07:34:43.972Z,14.05
2023-01-08T07:37:11.627Z,13.18
2023-01-08T07:39:39.302Z,13.20
2023-01-08T07:42:07.064Z,13.13
2023-01-08T07:44:34.723Z,12.55
2023-01-08T07:47:02.392Z,13.27
2023-01-08T07:49:30.044Z,12.50
2023-01-08T07:51:59.173Z,11.82
2023-01-08T07:54:26.840Z,12.27
2023-01-08T07:56:55.193Z,11.80
2023-01-08T07:59:22.881Z,11.68
2023-01-08T08:01:50.606Z,11.77
2023-01-08T08:04:19.186Z,11.90
2023-01-08T08:06:46.891Z,11.77
2023-01-08T08:09:15.917Z,11.52
2023-01-08T08:11:43.569Z,11.35
2023-01-08T08:14:11.274Z,11.10
2023-01-08T08:16:39.009Z,11.10
2023-01-08T08:19:06.673Z,10.60
2023-01-08T08:21:34.315Z,10.35
2023-01-08T08:24:02.176Z,9.68
2023-01-08T08:26:31.195Z,10.27
2023-01-08T08:28:58.879Z,9.73
2023-01-08T08:31:26.634Z,9.60
2023-01-08T08:33:54.341Z,9.23
2023-01-08T08:36:22.042Z,9.30
2023-01-08T08:38:49.686Z,9.63
2023-01-08T08:41:18.185Z,9.05
2023-01-08T08:43:47.208Z,9.00
2023-01-08T08:46:14.918Z,8.80
2023-01-08T08:48:42.584Z,8.00
2023-01-08T08:51:10.259Z,8.60
2023-01-08T08:53:37.977Z,8.55
2023-01-08T08:56:06.304Z,16.38
2023-01-08T08:58:33.967Z,9.48
2023-01-08T09:01:03.782Z,9.02
2023-01-08T09:03:31.577Z,46.10
2023-01-08T09:05:59.973Z,30.95
2023-01-08T09:08:27.741Z,11.50
2023-01-08T09:10:55.418Z,16.08
2023-01-08T09:13:23.100Z,20.52
2023-01-08T09:15:50.805Z,30.30
2023-01-08T09:18:19.797Z,22.33
2023-01-08T09:20:47.458Z,31.65
2023-01-08T09:23:15.125Z,26.73
2023-01-08T09:25:42.765Z,29.65
2023-01-08T09:28:12.331Z,26.10
2023-01-08T09:30:40.097Z,57.22
2023-01-08T09:33:07.853Z,85.68
2023-01-08T09:35:36.824Z,51.80
2023-01-08T09:38:04.513Z,32.35
2023-01-08T09:40:33.272Z,26.65
2023-01-08T09:43:02.091Z,19.63
2023-01-08T09:45:31.369Z,17.00
2023-01-08T09:47:59.515Z,15.68
2023-01-08T09:50:27.760Z,13.13
2023-01-08T09:52:56.739Z,8.40
2023-01-08T09:55:24.386Z,10.07
2023-01-08T09:57:52.103Z,14.68
2023-01-08T10:00:22.455Z,8.57
2023-01-08T10:02:50.185Z,6.88
2023-01-08T10:05:19.138Z,4.95
2023-01-08T10:07:46.934Z,5.72
2023-01-08T10:10:20.081Z,7.95
2023-01-08T10:12:47.799Z,7.72
2023-01-08T10:15:17.292Z,8.05
2023-01-08T10:17:47.208Z,5.97
2023-01-08T10:20:15.599Z,3.88
2023-01-08T10:22:43.944Z,8.65
2023-01-08T10:25:12.821Z,5.90
2023-01-08T10:27:48.311Z,5.05
2023-01-08T10:30:20.414Z,3.15
2023-01-08T10:32:49.258Z,7.15
2023-01-08T10:35:18.216Z,3.17
2023-01-08T10:37:47.425Z,5.95
2023-01-08T10:40:29.389Z,6.95
2023-01-08T10:42:59.651Z,7.07
2023-01-08T10:45:28.626Z,6.03
2023-01-08T10:47:58.323Z,6.13
2023-01-08T10:50:26.720Z,5.25
2023-01-08T10:52:54.969Z,2.78
2023-01-08T10:55:24.254Z,3.08
2023-01-08T10:57:57.758Z,8.35
2023-01-08T11:00:27.207Z,3.22
2023-01-08T11:02:54.889Z,3.90
2023-01-08T11:05:30.428Z,5.22
2023-01-08T11:07:59.264Z,4.93
2023-01-08T11:10:28.421Z,4.93
2023-01-08T11:12:58.763Z,6.13
2023-01-08T11:15:34.201Z,7.28
2023-01-08T11:18:14.096Z,7.07
2023-01-08T11:20:42.185Z,3.95
2023-01-08T11:23:19.723Z,5.78
2023-01-08T11:25:54.001Z,4.97
2023-01-08T11:28:27.940Z,3.25
2023-01-08T11:31:00.814Z,4.70
2023-01-08T11:33:29.303Z,6.32
2023-01-08T11:35:59.912Z,3.72
2023-01-08T11:38:27.710Z,6.03
2023-01-08T11:40:59.162Z,4.82
2023-01-08T11:43:32.138Z,6.10
2023-01-08T11:46:11.114Z,9.93
2023-01-08T11:48:47.200Z,3.90
2023-01-08T11:51:46.145Z,4.40
2023-01-08T11:54:20.529Z,2.63
2023-01-08T11:56:58.901Z,2.80
2023-01-08T11:59:31.356Z,4.20
2023-01-08T12:02:02.741Z,5.65
2023-01-08T12:04:45.796Z,6.78
2023-01-08T12:07:15.975Z,7.03
2023-01-08T12:09:46.096Z,6.53
2023-01-08T12:12:20.355Z,6.15
2023-01-08T12:14:56.371Z,7.70
2023-01-08T12:17:56.226Z,4.00
2023-01-08T12:20:30.342Z,6.95
2023-01-08T12:23:01.334Z,5.30
2023-01-08T12:25:36.576Z,4.68
2023-01-08T12:28:13.736Z,5.70
2023-01-08T12:30:47.995Z,7.00
2023-01-08T12:33:17.636Z,6.25
2023-01-08T12:35:47.641Z,5.53
2023-01-08T12:38:18.852Z,10.52
2023-01-08T12:40:47.990Z,4.45
2023-01-08T12:43:17.395Z,5.30
2023-01-08T12:45:47.429Z,3.58
2023-01-08T12:48:17.036Z,3.13
2023-01-08T12:50:53.141Z,3.92
2023-01-08T12:53:26.620Z,4.25
2023-01-08T12:56:00.855Z,1.65
2023-01-08T12:58:32.691Z,4.00
2023-01-08T13:01:07.180Z,7.05
2023-01-08T13:03:34.895Z,6.50
2023-01-08T13:06:07.805Z,4.90
2023-01-08T13:08:36.360Z,3.25
2023-01-08T13:11:04.174Z,1.63
2023-01-08T13:13:32.516Z,1.60
2023-01-08T13:16:08.997Z,2.28
2023-01-08T13:18:36.725Z,3.40
2023-01-08T13:21:04.716Z,7.97
2023-01-08T13:23:34.841Z,3.13
2023-01-08T13:26:03.763Z,3.50
2023-01-08T13:28:40.297Z,10.23
2023-01-08T13:31:28.968Z,5.00
2023-01-08T13:33:56.753Z,4.85
2023-01-08T13:36:25.555Z,2.97
2023-01-08T13:39:03.967Z,2.78
2023-01-08T13:41:32.395Z,3.50
2023-01-08T13:44:02.208Z,4.00
2023-01-08T13:46:31.250Z,3.78
2023-01-08T13:49:01.414Z,3.50
2023-01-08T13:51:34.908Z,4.95
2023-01-08T13:54:06.705Z,42.15
2023-01-08T13:56:34.424Z,8.15
2023-01-08T13:59:02.113Z,7.15
2023-01-08T14:01:31.251Z,5.72
2023-01-08T14:03:59.375Z,8.18
2023-01-08T14:06:27.599Z,5.05
2023-01-08T14:08:58.246Z,39.40
2023-01-08T14:11:28.707Z,4.75
2023-01-08T14:13:56.469Z,22.23
2023-01-08T14:16:24.204Z,15.38
2023-01-08T14:19:02.052Z,16.45
2023-01-08T14:21:29.779Z,14.38
2023-01-08T14:23:57.446Z,9.93
2023-01-08T14:26:29.430Z,15.82
2023-01-08T14:28:57.117Z,5.97
2023-01-08T14:31:26.390Z,13.45
2023-01-08T14:33:55.703Z,18.60
2023-01-08T14:36:23.387Z,18.33
2023-01-08T14:38:52.178Z,15.30
2023-01-08T14:41:23.227Z,37.55
2023-01-08T14:43:50.904Z,20.58
2023-01-08T14:46:22.898Z,26.40
2023-01-08T14:48:50.922Z,20.30
2023-01-08T14:51:24.686Z,36.05
2023-01-08T14:53:53.719Z,20.23
2023-01-08T14:56:22.922Z,18.50
2023-01-08T14:58:50.628Z,16.35
2023-01-08T15:01:19.447Z,27.80
2023-01-08T15:03:47.641Z,21.60
2023-01-08T15:06:26.182Z,27.65
2023-01-08T15:08:53.898Z,22.52
2023-01-08T15:11:22.823Z,20.73
2023-01-08T15:13:51.395Z,21.48
2023-01-08T15:16:29.037Z,25.85
2023-01-08T15:19:01.168Z,34.38
2023-01-08T15:21:30.262Z,24.40
2023-01-08T15:23:58.253Z,30.58
2023-01-08T15:26:25.971Z,28.73
2023-01-08T15:28:54.849Z,26.90
2023-01-08T15:31:27.032Z,21.77
2023-01-08T15:33:54.877Z,15.02
2023-01-08T15:36:22.663Z,12.93
2023-01-08T15:38:52.226Z,14.57
2023-01-08T15:41:41.094Z,18.02
2023-01-08T15:44:08.218Z,34.80
2023-01-08T15:46:35.925Z,19.00
2023-01-08T15:49:03.648Z,129.38
2023-01-08T15:51:32.480Z,57.92
2023-01-08T15:54:01.585Z,28.45
2023-01-08T15:56:29.566Z,39.28
2023-01-08T15:58:57.312Z,40.90
2023-01-08T16:01:25.140Z,34.38
2023-01-08T16:03:52.855Z,16.50
2023-01-08T16:06:20.526Z,19.98
2023-01-08T16:08:49.541Z,7.47
2023-01-08T16:11:18.861Z,6.93
2023-01-08T16:13:46.806Z,20.20
2023-01-08T16:16:16.282Z,13.27
2023-01-08T16:18:44.012Z,16.27
2023-01-08T16:21:11.975Z,14.27
2023-01-08T16:23:40.147Z,16.80
2023-01-08T16:26:08.270Z,14.80
2023-01-08T16:28:37.337Z,7.72
2023-01-08T16:31:05.297Z,10.90
2023-01-08T16:33:33.015Z,9.75
2023-01-08T16:36:01.931Z,9.30
2023-01-08T16:38:31.271Z,12.75
2023-01-08T16:41:00.497Z,6.70
2023-01-08T16:43:28.816Z,8.00
2023-01-08T16:46:03.018Z,6.57
2023-01-08T16:48:31.068Z,12.20
2023-01-08T16:51:00.386Z,5.10
2023-01-08T16:53:28.052Z,10.80
2023-01-08T16:55:55.704Z,7.75
2023-01-08T16:58:23.391Z,12.35
2023-01-08T17:00:51.136Z,20.20
2023-01-08T17:03:20.552Z,10.73
2023-01-08T17:05:48.256Z,11.65
2023-01-08T17:08:16.818Z,11.73
2023-01-08T17:10:44.604Z,8.40
2023-01-08T17:13:12.327Z,10.10
2023-01-08T17:15:40.080Z,10.32
2023-01-08T17:18:07.801Z,10.93
2023-01-08T17:20:37.042Z,9.52
2023-01-08T17:23:04.864Z,10.73
2023-01-08T17:25:32.504Z,11.02
2023-01-08T17:28:00.152Z,7.90
2023-01-08T17:30:27.830Z,8.25
2023-01-08T17:32:55.491Z,7.80
2023-01-08T17:35:23.162Z,12.70
2023-01-08T17:37:52.232Z,8.27
2023-01-08T17:40:20.062Z,7.40
2023-01-08T17:42:47.773Z,8.80
2023-01-08T17:45:17.202Z,5.35
2023-01-08T17:47:44.909Z,8.88
2023-01-08T17:50:12.796Z,6.18
2023-01-08T17:52:40.490Z,6.90
2023-01-08T17:55:09.998Z,5.72
2023-01-08T17:57:37.651Z,7.28
2023-01-08T18:00:06.259Z,5.22
2023-01-08T18:02:33.997Z,7.28
2023-01-08T18:05:01.723Z,7.32
2023-01-08T18:07:29.421Z,5.28
2023-01-08T18:09:57.648Z,8.48
2023-01-08T18:12:26.658Z,6.72
2023-01-08T18:14:54.324Z,8.25
2023-01-08T18:17:22.013Z,7.40
2023-01-08T18:19:49.697Z,6.65
2023-01-08T18:22:17.560Z,4.57
2023-01-08T18:24:45.200Z,5.00
2023-01-08T18:27:12.861Z,8.15
2023-01-08T18:29:41.974Z,4.28
2023-01-08T18:32:09.683Z,4.25
2023-01-08T18:34:38.712Z,5.35
2023-01-08T18:37:06.388Z,5.57
2023-01-08T18:39:34.051Z,5.32
2023-01-08T18:42:19.276Z,4.88
2023-01-08T18:44:48.276Z,4.15
2023-01-08T18:47:15.946Z,4.63
2023-01-08T18:49:43.717Z,4.47
2023-01-08T18:52:13.874Z,5.10
2023-01-08T18:54:41.545Z,4.13
2023-01-08T18:57:09.278Z,4.78
2023-01-08T18:59:37.007Z,2.83
2023-01-08T19:02:06.147Z,4.80
2023-01-08T19:04:33.904Z,2.97
2023-01-08T19:07:01.626Z,5.80
2023-01-08T19:09:29.273Z,3.20
2023-01-08T19:11:56.936Z,3.40
2023-01-08T19:14:24.615Z,5.82
2023-01-08T19:16:52.426Z,3.17
2023-01-08T19:19:21.418Z,3.67
2023-01-08T19:21:49.149Z,4.68
2023-01-08T19:24:16.881Z,3.22
2023-01-08T19:26:45.117Z,3.97
2023-01-08T19:29:12.827Z,3.58
2023-01-08T19:31:40.549Z,3.10
2023-01-08T19:34:08.227Z,2.80
2023-01-08T19:36:37.238Z,3.95
2023-01-08T19:39:05.275Z,2.70
2023-01-08T19:41:50.670Z,1.88
2023-01-08T19:44:18.349Z,4.57
2023-01-08T19:46:46.023Z,2.60
2023-01-08T19:49:13.672Z,3.28
2023-01-08T19:51:42.704Z,2.50
2023-01-08T19:54:11.977Z,4.03
2023-01-08T19:56:39.670Z,1.98
2023-01-08T19:59:07.367Z,2.10
2023-01-08T20:01:35.067Z,2.67
2023-01-08T20:04:04.075Z,2.28
2023-01-08T20:06:31.916Z,2.33
2023-01-08T20:09:01.147Z,2.58
2023-01-08T20:11:29.403Z,2.65
2023-01-08T20:14:00.256Z,1.88
2023-01-08T20:16:29.582Z,2.42
2023-01-08T20:18:58.179Z,3.55
2023-01-08T20:21:26.118Z,3.03
2023-01-08T20:23:59.131Z,2.45
2023-01-08T20:26:28.556Z,2.95
2023-01-08T20:28:57.048Z,1.83
2023-01-08T20:31:29.177Z,1.85
2023-01-08T20:33:57.038Z,2.80
2023-01-08T20:36:26.403Z,1.80
2023-01-08T20:38:55.007Z,2.22
2023-01-08T20:41:22.805Z,1.67
2023-01-08T20:43:52.349Z,2.75
2023-01-08T20:46:20.203Z,2.70
2023-01-08T20:48:48.455Z,1.63
2023-01-08T20:51:16.864Z,2.83
2023-01-08T20:53:44.609Z,2.53
2023-01-08T20:56:13.062Z,2.67
2023-01-08T20:58:42.457Z,2.42
2023-01-08T21:01:12.638Z,1.08
2023-01-08T21:03:40.736Z,1.83
2023-01-08T21:06:09.345Z,2.08
2023-01-08T21:08:37.221Z,2.05
2023-01-08T21:11:05.884Z,2.10
2023-01-08T21:13:33.625Z,3.15
2023-01-08T21:16:03.438Z,1.80
2023-01-08T21:18:32.552Z,1.30
2023-01-08T21:21:00.892Z,1.90
2023-01-08T21:23:28.743Z,2.50
2023-01-08T21:25:57.470Z,1.67
2023-01-08T21:28:25.394Z,1.70
2023-01-08T21:30:53.268Z,1.73
2023-01-08T21:33:21.137Z,2.38
2023-01-08T21:35:50.187Z,1.92
2023-01-08T21:38:17.914Z,2.58
2023-01-08T21:40:45.622Z,1.75
2023-01-08T21:43:31.256Z,2.33
2023-01-08T21:46:01.422Z,1.88
2023-01-08T21:48:29.286Z,2.83
2023-01-08T21:50:58.486Z,1.73
2023-01-08T21:53:31.228Z,2.72
2023-01-08T21:55:59.684Z,2.38
2023-01-08T21:58:27.677Z,2.08
2023-01-08T22:00:55.503Z,1.80
2023-01-08T22:03:23.427Z,2.13
2023-01-08T22:05:59.320Z,1.50
2023-01-08T22:08:28.032Z,3.72
2023-01-08T22:10:55.894Z,2.15
2023-01-08T22:13:23.555Z,1.58
2023-01-08T22:15:51.308Z,3.03
2023-01-08T22:18:18.991Z,2.33
2023-01-08T22:20:46.656Z,1.55
2023-01-08T22:23:15.702Z,2.28
2023-01-08T22:25:43.714Z,2.08
2023-01-08T22:28:11.980Z,1.88
2023-01-08T22:30:40.671Z,1.38
2023-01-08T22:33:08.394Z,2.15
2023-01-08T22:35:38.117Z,1.77
2023-01-08T22:38:05.803Z,1.95
2023-01-08T22:40:35.077Z,1.10
2023-01-08T22:43:02.823Z,1.33
2023-01-08T22:45:30.634Z,1.70
2023-01-08T22:47:58.323Z,1.38
2023-01-08T22:50:26.171Z,1.73
2023-01-08T22:52:53.955Z,1.48
2023-01-08T22:55:21.796Z,2.25
2023-01-08T22:57:52.039Z,2.47
2023-01-08T23:00:20.395Z,1.77
2023-01-08T23:02:48.290Z,1.80
2023-01-08T23:05:16.259Z,1.30
2023-01-08T23:07:44.261Z,1.80
2023-01-08T23:10:12.630Z,1.63
2023-01-08T23:12:40.316Z,1.70
2023-01-08T23:15:10.551Z,1.48
2023-01-08T23:17:47.928Z,2.35
2023-01-08T23:20:20.044Z,2.17
2023-01-08T23:22:47.799Z,1.77
2023-01-08T23:25:15.550Z,1.90
2023-01-08T23:27:44.704Z,1.77
2023-01-08T23:30:15.041Z,1.77
2023-01-08T23:32:42.831Z,2.13
2023-01-08T23:35:10.894Z,1.95
2023-01-08T23:37:38.652Z,2.30
2023-01-08T23:40:07.304Z,2.40
2023-01-08T23:42:35.005Z,2.50
2023-01-08T23:45:02.675Z,3.25
2023-01-08T23:47:33.594Z,2.58
2023-01-08T23:50:01.564Z,3.05
2023-01-08T23:52:29.297Z,3.05
2023-01-08T23:54:57.052Z,3.40
2023-01-08T23:57:24.825Z,3.38
2023-01-08T23:59:54.925Z,4.18
